createdAt,value
2023-03-16T00:01:55.623Z,64.72
2023-03-16T00:07:19.823Z,62.30
2023-03-16T00:12:45.254Z,59.49
2023-03-16T00:18:10.165Z,60.39
2023-03-16T00:23:36.390Z,64.93
2023-03-16T00:29:02.166Z,61.96
2023-03-16T00:34:30.374Z,60.17
2023-03-16T00:39:58.447Z,59.02
2023-03-16T00:45:23.878Z,63.67
2023-03-16T00:50:48.501Z,63.82
2023-03-16T00:56:14.028Z,61.14
2023-03-16T01:01:39.288Z,60.01
2023-03-16T01:07:04.919Z,58.87
2023-03-16T01:12:29.218Z,62.60
2023-03-16T01:17:53.497Z,64.88
2023-03-16T01:23:19.448Z,61.83
2023-03-16T01:28:45.425Z,60.33
2023-03-16T01:34:09.354Z,59.71
2023-03-16T01:39:33.755Z,59.70
2023-03-16T01:45:05.990Z,59.07
2023-03-16T01:50:36.074Z,60.18
2023-03-16T01:56:03.640Z,64.91
2023-03-16T02:01:29.484Z,65.56
2023-03-16T02:06:57.759Z,62.54
2023-03-16T02:12:22.183Z,60.11
2023-03-16T02:17:51.051Z,58.15
2023-03-16T02:23:20.014Z,62.76
2023-03-16T02:29:30.368Z,64.71
2023-03-16T02:34:57.432Z,61.73
2023-03-16T02:40:30.823Z,60.02
2023-03-16T02:46:04.208Z,58.67
2023-03-16T02:51:28.647Z,62.51
2023-03-16T02:56:52.829Z,65.06
2023-03-16T03:02:17.905Z,62.28
2023-03-16T03:07:42.830Z,61.14
2023-03-16T03:13:10.167Z,60.43
2023-03-16T03:18:35.458Z,59.65
2023-03-16T03:24:00.046Z,59.44
2023-03-16T03:29:24.243Z,61.69
2023-03-16T03:34:48.695Z,65.47
2023-03-16T03:40:17.573Z,62.66
2023-03-16T03:45:44.411Z,60.75
2023-03-16T03:51:08.818Z,59.94
2023-03-16T03:56:46.083Z,59.74
2023-03-16T04:02:14.596Z,58.23
2023-03-16T04:07:43.619Z,59.95
2023-03-16T04:13:10.302Z,65.81
2023-03-16T04:18:38.888Z,63.63
2023-03-16T04:24:05.609Z,61.08
2023-03-16T04:29:32.568Z,59.21
2023-03-16T04:34:57.478Z,58.88
2023-03-16T04:40:30.851Z,63.65
2023-03-16T04:46:16.765Z,66.01
2023-03-16T04:51:42.930Z,61.92
2023-03-16T04:57:10.595Z,60.63
2023-03-16T05:02:39.893Z,59.72
2023-03-16T05:08:06.385Z,58.51
2023-03-16T05:13:31.637Z,60.43
2023-03-16T05:19:01.757Z,65.99
2023-03-16T05:24:27.357Z,63.77
2023-03-16T05:29:51.372Z,61.49
2023-03-16T05:35:18.631Z,59.89
2023-03-16T05:40:44.135Z,57.87
2023-03-16T05:46:20.649Z,63.40
2023-03-16T05:51:46.936Z,66.12
2023-03-16T05:57:11.282Z,62.26
2023-03-16T06:02:36.108Z,60.18
2023-03-16T06:08:00.699Z,58.84
2023-03-16T06:13:25.228Z,63.90
2023-03-16T06:18:50.685Z,63.72
2023-03-16T06:24:15.993Z,60.53
2023-03-16T06:29:40.241Z,59.08
2023-03-16T06:35:05.734Z,62.87
2023-03-16T06:40:30.700Z,63.22
2023-03-16T06:45:55.322Z,60.48
2023-03-16T06:51:20.476Z,59.29
2023-03-16T06:56:46.505Z,62.44
2023-03-16T07:02:14.779Z,64.16
2023-03-16T07:07:42.934Z,60.67
2023-03-16T07:13:07.776Z,59.12
2023-03-16T07:18:32.190Z,61.36
2023-03-16T07:23:57.026Z,63.70
2023-03-16T07:29:24.960Z,60.16
2023-03-16T07:34:50.053Z,58.69
2023-03-16T07:40:16.004Z,63.59
2023-03-16T07:45:40.699Z,61.85
2023-03-16T07:51:06.360Z,59.12
2023-03-16T07:56:46.008Z,60.15
2023-03-16T08:02:21.998Z,63.90
2023-03-16T08:07:47.219Z,60.06
2023-03-16T08:13:16.298Z,58.86
2023-03-16T08:18:42.743Z,61.82
2023-03-16T08:24:07.926Z,63.42
2023-03-16T08:29:34.947Z,58.95
2023-03-16T08:35:01.591Z,58.62
2023-03-16T08:40:30.101Z,62.00
2023-03-16T08:45:56.238Z,62.95
2023-03-16T08:51:23.532Z,58.23
2023-03-16T08:56:48.327Z,59.73
2023-03-16T09:02:15.241Z,62.11
2023-03-16T09:07:41.355Z,63.83
2023-03-16T09:13:05.978Z,56.45
2023-03-16T09:18:31.600Z,58.26
2023-03-16T09:23:56.542Z,60.48
2023-03-16T09:29:22.138Z,61.46
2023-03-16T09:34:47.523Z,60.61
2023-03-16T09:40:23.338Z,60.63
2023-03-16T09:46:10.679Z,59.57
2023-03-16T09:52:00.814Z,59.21
2023-03-16T09:57:35.867Z,58.16
2023-03-16T10:03:15.062Z,56.36
2023-03-16T10:08:50.860Z,55.48
2023-03-16T10:14:34.203Z,56.26
2023-03-16T10:20:05.001Z,55.55
2023-03-16T10:25:41.990Z,55.26
2023-03-16T10:31:06.982Z,54.78
2023-03-16T10:36:34.979Z,54.26
2023-03-16T10:42:00.823Z,54.32
2023-03-16T10:47:31.860Z,54.10
2023-03-16T10:52:58.235Z,53.09
2023-03-16T10:58:27.510Z,52.66
2023-03-16T11:03:55.783Z,51.02
2023-03-16T11:09:25.230Z,49.61
2023-03-16T11:14:50.439Z,49.24
2023-03-16T11:20:23.806Z,49.89
2023-03-16T11:25:53.814Z,49.29
2023-03-16T11:31:33.144Z,48.13
2023-03-16T11:37:13.380Z,48.59
2023-03-16T11:43:06.251Z,47.90
2023-03-16T11:49:02.590Z,48.05
2023-03-16T11:54:33.350Z,46.99
2023-03-16T12:00:27.402Z,47.30
2023-03-16T12:06:02.116Z,46.88
2023-03-16T12:11:40.877Z,46.75
2023-03-16T12:17:16.568Z,46.47
2023-03-16T12:23:06.614Z,46.16
2023-03-16T12:28:33.832Z,44.88
2023-03-16T12:34:07.075Z,42.47
2023-03-16T12:39:45.979Z,42.92
2023-03-16T12:45:52.297Z,43.32
2023-03-16T12:51:17.539Z,43.28
2023-03-16T12:56:47.580Z,41.82
2023-03-16T13:02:19.747Z,42.25
2023-03-16T13:08:04.089Z,42.22
2023-03-16T13:13:33.031Z,43.77
2023-03-16T13:18:58.284Z,43.76
2023-03-16T13:24:29.142Z,41.71
2023-03-16T13:29:56.720Z,38.65
2023-03-16T13:35:25.300Z,40.02
2023-03-16T13:40:55.610Z,40.47
2023-03-16T13:46:22.594Z,41.10
2023-03-16T13:51:48.753Z,40.45
2023-03-16T13:57:13.897Z,41.98
2023-03-16T14:02:44.291Z,41.77
2023-03-16T14:08:19.845Z,41.54
2023-03-16T14:13:53.885Z,40.51
2023-03-16T14:19:23.110Z,40.14
2023-03-16T14:24:54.025Z,40.56
2023-03-16T14:30:24.552Z,39.81
2023-03-16T14:35:55.088Z,39.69
2023-03-16T14:41:26.549Z,39.43
2023-03-16T14:46:53.379Z,39.78
2023-03-16T14:52:33.336Z,39.95
2023-03-16T14:57:57.242Z,37.76
2023-03-16T15:03:30.529Z,37.61
2023-03-16T15:08:55.901Z,36.68
2023-03-16T15:14:40.992Z,36.65
2023-03-16T15:20:05.748Z,36.37
2023-03-16T15:25:38.700Z,36.29
2023-03-16T15:31:04.166Z,36.39
2023-03-16T15:36:28.382Z,35.65
2023-03-16T15:41:53.172Z,35.70
2023-03-16T15:47:17.677Z,35.73
2023-03-16T15:52:43.916Z,35.95
2023-03-16T15:58:20.702Z,36.03
2023-03-16T16:03:45.050Z,36.19
2023-03-16T16:09:09.401Z,36.49
2023-03-16T16:14:35.503Z,37.10
2023-03-16T16:20:01.105Z,36.96
2023-03-16T16:25:26.051Z,37.57
2023-03-16T16:30:50.869Z,38.11
2023-03-16T16:36:21.169Z,38.30
2023-03-16T16:41:46.458Z,38.29
2023-03-16T16:47:23.024Z,38.32
2023-03-16T16:52:49.758Z,38.19
2023-03-16T16:58:23.894Z,38.16
2023-03-16T17:03:48.967Z,38.14
2023-03-16T17:09:14.633Z,38.64
2023-03-16T17:14:39.309Z,39.45
2023-03-16T17:20:06.662Z,40.05
2023-03-16T17:25:32.738Z,40.42
2023-03-16T17:30:57.423Z,40.84
2023-03-16T17:36:22.785Z,41.33
2023-03-16T17:41:47.960Z,41.74
2023-03-16T17:47:18.410Z,42.32
2023-03-16T17:52:43.653Z,43.00
2023-03-16T17:58:35.378Z,43.57
2023-03-16T18:03:59.436Z,43.92
2023-03-16T18:09:25.159Z,44.34
2023-03-16T18:14:50.090Z,44.80
2023-03-16T18:20:34.049Z,45.22
2023-03-16T18:26:07.417Z,45.60
2023-03-16T18:31:36.205Z,45.62
2023-03-16T18:37:06.450Z,45.61
2023-03-16T18:42:31.269Z,45.92
2023-03-16T18:47:56.748Z,46.76
2023-03-16T18:53:25.374Z,47.51
2023-03-16T18:58:51.859Z,47.92
2023-03-16T19:04:27.633Z,48.38
2023-03-16T19:09:52.752Z,48.82
2023-03-16T19:15:19.005Z,49.38
2023-03-16T19:20:48.958Z,49.62
2023-03-16T19:26:15.680Z,49.87
2023-03-16T19:31:40.332Z,49.92
2023-03-16T19:37:05.567Z,50.23
2023-03-16T19:42:36.678Z,50.49
2023-03-16T19:48:02.342Z,50.68
2023-03-16T19:53:27.674Z,50.88
2023-03-16T19:58:53.945Z,51.08
2023-03-16T20:04:25.237Z,51.28
2023-03-16T20:09:51.785Z,51.56
2023-03-16T20:15:18.338Z,51.90
2023-03-16T20:20:43.721Z,52.19
2023-03-16T20:26:17.031Z,52.62
2023-03-16T20:31:42.613Z,52.63
2023-03-16T20:37:21.736Z,52.85
2023-03-16T20:42:47.816Z,52.50
2023-03-16T20:48:16.366Z,52.72
2023-03-16T20:53:40.933Z,53.01
2023-03-16T20:59:05.636Z,53.42
2023-03-16T21:04:30.334Z,53.82
2023-03-16T21:09:55.034Z,54.22
2023-03-16T21:15:26.758Z,54.59
2023-03-16T21:20:51.037Z,54.74
2023-03-16T21:26:25.284Z,55.02
2023-03-16T21:31:50.297Z,55.30
2023-03-16T21:37:15.877Z,55.58
2023-03-16T21:42:40.892Z,55.77
2023-03-16T21:48:06.811Z,56.04
2023-03-16T21:53:33.792Z,56.26
2023-03-16T21:58:58.625Z,56.53
2023-03-16T22:04:23.320Z,56.84
2023-03-16T22:09:48.164Z,57.09
2023-03-16T22:15:15.059Z,57.34
2023-03-16T22:20:39.836Z,57.56
2023-03-16T22:26:06.362Z,57.86
2023-03-16T22:31:39.186Z,58.23
2023-03-16T22:37:04.501Z,58.60
2023-03-16T22:42:38.259Z,58.74
2023-03-16T22:48:16.838Z,58.90
2023-03-16T22:53:45.713Z,59.21
2023-03-16T22:59:18.228Z,59.42
2023-03-16T23:04:42.979Z,59.48
2023-03-16T23:10:08.480Z,59.74
2023-03-16T23:15:38.743Z,60.08
2023-03-16T23:21:04.569Z,60.29
2023-03-16T23:26:29.445Z,60.35
2023-03-16T23:31:54.192Z,60.49
2023-03-16T23:37:18.627Z,60.63
2023-03-16T23:42:44.010Z,60.84
2023-03-16T23:48:17.848Z,60.96
2023-03-16T23:53:42.925Z,61.02
2023-03-16T23:59:07.622Z,61.17
